Time;durP1;ratioP1;P1;durP2;ratioP2;P2;SDS_P1;SDS_P2;PMS_P1;PMS_P2;Temp;Humidity;BMP_temperature;BMP_pressure;BME280_temperature;BME280_humidity;BME280_pressure;Samples;Min_cycle;Max_cycle;Signal;HPM_P1;HPM_P2
2022/09/06 00:04:59;;;;;;;201.27;189.57;;;;;;;;;;16890784;28;20461;-88
2022/09/06 00:13:20;;;;;;;195.13;184.17;;;;;;;;;;16889578;29;20264;-87
2022/09/06 00:21:40;;;;;;;149.43;141.03;;;;;;;;;;16889134;28;20197;-87
2022/09/06 00:30:03;;;;;;;176.03;165.90;;;;;;;;;;16889701;29;20228;-87
2022/09/06 00:38:23;;;;;;;156.00;147.20;;;;;;;;;;16889105;29;20219;-87
2022/09/06 00:46:45;;;;;;;172.93;162.80;;;;;;;;;;16887862;29;20173;-87
2022/09/06 00:55:06;;;;;;;139.77;131.97;;;;;;;;;;16887454;28;20287;-87
2022/09/06 01:03:26;;;;;;;164.27;154.93;;;;;;;;;;16887492;29;20670;-86
2022/09/06 01:12:05;;;;;;;132.43;125.22;;;;;;;;;;16888696;29;20210;-86
2022/09/06 01:20:43;;;;;;;143.70;135.53;;;;;;;;;;16887105;29;20209;-86
2022/09/06 01:29:06;;;;;;;149.40;140.60;;;;;;;;;;16886854;29;20173;-87
2022/09/06 01:37:27;;;;;;;135.40;127.97;;;;;;;;;;16885528;29;20173;-86
2022/09/06 01:45:53;;;;;;;137.93;130.13;;;;;;;;;;16885148;29;20665;-86
2022/09/06 01:54:31;;;;;;;159.90;150.17;;;;;;;;;;16885652;28;20200;-86
2022/09/06 02:03:06;;;;;;;157.70;148.00;;;;;;;;;;16886394;28;20236;-86
2022/09/06 02:11:28;;;;;;;135.87;127.97;;;;;;;;;;16886171;28;20205;-86
2022/09/06 02:19:53;;;;;;;138.13;130.03;;;;;;;;;;16894070;28;20296;-87
2022/09/06 02:28:15;;;;;;;155.47;146.00;;;;;;;;;;16895828;29;20166;-87
2022/09/06 02:36:36;;;;;;;129.57;122.20;;;;;;;;;;16894354;29;20177;-87
2022/09/06 02:44:56;;;;;;;148.27;138.77;;;;;;;;;;16894943;29;20212;-87
2022/09/06 02:53:17;;;;;;;131.53;123.20;;;;;;;;;;16894543;29;20198;-86
2022/09/06 03:01:37;;;;;;;136.37;127.93;;;;;;;;;;16895036;28;20677;-87
2022/09/06 03:09:57;;;;;;;123.20;115.47;;;;;;;;;;16893257;28;20528;-87
2022/09/06 03:18:18;;;;;;;121.87;114.37;;;;;;;;;;16894187;29;20295;-87
2022/09/06 03:26:38;;;;;;;145.93;136.23;;;;;;;;;;16893470;29;20184;-87
2022/09/06 03:34:58;;;;;;;126.70;118.70;;;;;;;;;;16891585;29;20173;-87
2022/09/06 03:43:19;;;;;;;134.90;126.47;;;;;;;;;;16892057;28;20201;-87
2022/09/06 03:51:40;;;;;;;139.53;130.77;;;;;;;;;;16891668;29;20198;-87
2022/09/06 04:00:00;;;;;;;128.40;120.37;;;;;;;;;;16890272;28;20771;-87
2022/09/06 04:08:20;;;;;;;135.37;126.97;;;;;;;;;;16892032;28;20281;-87
2022/09/06 04:16:41;;;;;;;140.50;131.57;;;;;;;;;;16890838;29;20621;-87
2022/09/06 04:25:02;;;;;;;136.83;128.10;;;;;;;;;;16888716;29;20228;-87
2022/09/06 04:33:24;;;;;;;156.17;146.27;;;;;;;;;;16888525;29;20186;-87
2022/09/06 04:41:45;;;;;;;184.73;173.63;;;;;;;;;;16889444;28;20335;-87
2022/09/06 04:50:05;;;;;;;273.20;258.57;;;;;;;;;;16887355;28;20197;-88
2022/09/06 04:58:25;;;;;;;232.13;219.47;;;;;;;;;;16889257;28;20233;-88
2022/09/06 05:06:46;;;;;;;286.57;270.40;;;;;;;;;;16886960;29;20178;-88
2022/09/06 05:15:06;;;;;;;302.03;282.43;;;;;;;;;;16886516;29;20182;-89
2022/09/06 05:23:27;;;;;;;279.33;259.85;;;;;;;;;;16887029;28;20208;-89
2022/09/06 05:31:47;;;;;;;329.42;303.85;;;;;;;;;;16885836;29;20182;-89
2022/09/06 05:40:08;;;;;;;426.20;389.67;;;;;;;;;;16888244;28;20565;-89
2022/09/06 05:48:28;;;;;;;368.52;338.48;;;;;;;;;;16885860;29;20194;-89
2022/09/06 05:56:49;;;;;;;374.88;344.08;;;;;;;;;;16886490;28;20232;-89
2022/09/06 06:05:09;;;;;;;462.63;421.55;;;;;;;;;;16885328;29;20205;-90
2022/09/06 06:13:33;;;;;;;621.00;566.33;;;;;;;;;;16886902;28;20648;-90
2022/09/06 06:21:55;;;;;;;1269.03;999.90;;;;;;;;;;16883710;29;20609;-89
2022/09/06 06:30:15;;;;;;;917.58;835.38;;;;;;;;;;16883294;29;20174;-90
2022/09/06 06:38:36;;;;;;;663.00;606.47;;;;;;;;;;16882175;29;20263;-91
2022/09/06 06:46:57;;;;;;;734.45;672.45;;;;;;;;;;16882641;29;20178;-90
2022/09/06 06:55:18;;;;;;;710.85;652.05;;;;;;;;;;16883868;28;20233;-90
2022/09/06 07:03:38;;;;;;;677.08;622.22;;;;;;;;;;16889556;28;20240;-89
2022/09/06 07:11:59;;;;;;;703.03;646.25;;;;;;;;;;16889771;28;20184;-89
2022/09/06 07:20:19;;;;;;;690.35;635.10;;;;;;;;;;16891230;28;20692;-89
2022/09/06 07:28:39;;;;;;;708.47;652.05;;;;;;;;;;16892787;29;20201;-89
2022/09/06 07:37:00;;;;;;;853.72;787.25;;;;;;;;;;16891470;29;20174;-88
2022/09/06 07:45:20;;;;;;;720.17;663.97;;;;;;;;;;16891122;28;20228;-89
2022/09/06 07:53:41;;;;;;;732.92;676.33;;;;;;;;;;16891550;28;20204;-88
2022/09/06 08:02:01;;;;;;;656.60;605.88;;;;;;;;;;16887386;28;20241;-87
2022/09/06 08:10:22;;;;;;;550.88;508.77;;;;;;;;;;16885753;29;20616;-87
2022/09/06 08:18:42;;;;;;;544.00;502.58;;;;;;;;;;16886899;29;20300;-87
2022/09/06 08:27:06;;;;;;;520.00;480.88;;;;;;;;;;16889742;29;20170;-87
2022/09/06 08:35:26;;;;;;;553.17;511.50;;;;;;;;;;16888779;29;20176;-87
2022/09/06 08:43:54;;;;;;;583.88;539.75;;;;;;;;;;16889007;29;20205;-87
2022/09/06 08:52:20;;;;;;;560.65;516.53;;;;;;;;;;16887594;29;20201;-87
2022/09/06 09:00:46;;;;;;;500.75;464.13;;;;;;;;;;16889453;29;20687;-86
2022/09/06 09:09:10;;;;;;;545.70;506.20;;;;;;;;;;16886918;29;20161;-87
2022/09/06 09:17:30;;;;;;;563.10;522.83;;;;;;;;;;16887613;29;20181;-86
2022/09/06 09:25:54;;;;;;;520.90;484.63;;;;;;;;;;16886534;29;20240;-86
2022/09/06 09:34:28;;;;;;;550.67;511.70;;;;;;;;;;16886702;29;20208;-86
2022/09/06 09:42:48;;;;;;;534.37;497.27;;;;;;;;;;16886350;29;20702;-86
2022/09/06 09:51:35;;;;;;;566.00;526.13;;;;;;;;;;16886841;29;20197;-86
2022/09/06 09:59:57;;;;;;;557.87;518.20;;;;;;;;;;16885789;28;20590;-85
2022/09/06 10:08:17;;;;;;;526.00;489.23;;;;;;;;;;16883777;28;20181;-86
2022/09/06 10:16:45;;;;;;;517.60;481.80;;;;;;;;;;16884914;28;20182;-86
2022/09/06 10:25:13;;;;;;;548.83;510.13;;;;;;;;;;16884865;29;20213;-86
2022/09/06 10:34:12;;;;;;;554.50;515.40;;;;;;;;;;16884413;29;20181;-86
2022/09/06 10:42:46;;;;;;;566.60;526.53;;;;;;;;;;16937270;28;20256;-86
2022/09/06 10:51:12;;;;;;;556.63;517.17;;;;;;;;;;16892317;28;20592;-85
2022/09/06 10:59:36;;;;;;;558.50;518.77;;;;;;;;;;16893062;28;20237;-86
2022/09/06 11:08:00;;;;;;;552.17;512.93;;;;;;;;;;16893963;29;20177;-86
2022/09/06 11:16:23;;;;;;;620.93;576.00;;;;;;;;;;16892585;28;20181;-86
2022/09/06 11:24:57;;;;;;;577.10;535.37;;;;;;;;;;16893248;28;20208;-86
2022/09/06 11:33:29;;;;;;;566.60;524.77;;;;;;;;;;16891570;29;20276;-86
2022/09/06 11:41:49;;;;;;;578.50;535.93;;;;;;;;;;16891147;28;20209;-86
2022/09/06 11:50:25;;;;;;;611.20;566.63;;;;;;;;;;16890969;28;20229;-86
2022/09/06 11:58:52;;;;;;;562.43;521.53;;;;;;;;;;16891372;28;20232;-86
2022/09/06 12:07:12;;;;;;;564.73;523.30;;;;;;;;;;16890937;28;20177;-86
2022/09/06 12:15:44;;;;;;;615.47;570.27;;;;;;;;;;16889138;29;20703;-86
2022/09/06 12:24:05;;;;;;;687.53;637.53;;;;;;;;;;16888924;28;20209;-86
2022/09/06 12:32:46;;;;;;;677.17;627.87;;;;;;;;;;16886470;28;20254;-86
2022/09/06 12:41:07;;;;;;;674.27;624.90;;;;;;;;;;16887237;29;20221;-86
2022/09/06 12:49:27;;;;;;;661.70;613.80;;;;;;;;;;16882812;28;20208;-86
2022/09/06 12:57:50;;;;;;;713.73;662.03;;;;;;;;;;16881441;28;20240;-86
2022/09/06 13:06:17;;;;;;;836.07;776.17;;;;;;;;;;16882268;28;20217;-86
2022/09/06 13:14:37;;;;;;;809.00;750.47;;;;;;;;;;16882539;29;20209;-86
2022/09/06 13:23:05;;;;;;;809.83;750.53;;;;;;;;;;16880439;28;20201;-88
2022/09/06 13:31:26;;;;;;;642.23;594.53;;;;;;;;;;16884978;29;20316;-86
2022/09/06 13:39:47;;;;;;;621.40;575.20;;;;;;;;;;16885418;28;20204;-86
2022/09/06 13:48:07;;;;;;;660.90;611.73;;;;;;;;;;16884123;29;20195;-86
2022/09/06 13:56:27;;;;;;;709.33;657.20;;;;;;;;;;16880828;28;20224;-86
2022/09/06 14:04:48;;;;;;;709.33;656.87;;;;;;;;;;16883921;28;20305;-86
2022/09/06 14:13:09;;;;;;;667.27;618.47;;;;;;;;;;16891897;29;20189;-86
2022/09/06 14:21:30;;;;;;;706.93;655.67;;;;;;;;;;16896001;29;20213;-86
2022/09/06 14:29:50;;;;;;;681.33;631.97;;;;;;;;;;16895070;29;20177;-86
2022/09/06 14:38:10;;;;;;;766.53;712.10;;;;;;;;;;16894388;28;20269;-87
2022/09/06 14:46:31;;;;;;;783.20;728.17;;;;;;;;;;16896133;28;20614;-86
2022/09/06 14:54:51;;;;;;;789.17;733.87;;;;;;;;;;16894580;28;20193;-85
2022/09/06 15:03:11;;;;;;;777.33;723.33;;;;;;;;;;16895330;29;20214;-86
2022/09/06 15:11:33;;;;;;;818.70;762.17;;;;;;;;;;16893903;29;20185;-86
2022/09/06 15:19:55;;;;;;;746.80;694.73;;;;;;;;;;16892525;29;20221;-86
2022/09/06 15:28:19;;;;;;;838.73;781.13;;;;;;;;;;16893362;28;20239;-87
2022/09/06 15:36:39;;;;;;;821.50;765.17;;;;;;;;;;16891685;29;20181;-87
2022/09/06 15:44:59;;;;;;;789.90;735.57;;;;;;;;;;16891172;29;20263;-87
2022/09/06 15:53:20;;;;;;;823.40;766.67;;;;;;;;;;16890877;28;20232;-87
2022/09/06 16:01:40;;;;;;;780.17;726.50;;;;;;;;;;16891293;28;20328;-89
2022/09/06 16:10:00;;;;;;;781.37;727.50;;;;;;;;;;16891803;29;20622;-87
2022/09/06 16:18:22;;;;;;;826.07;769.80;;;;;;;;;;16889385;28;20186;-86
2022/09/06 16:26:43;;;;;;;858.23;799.63;;;;;;;;;;16886783;29;20193;-87
2022/09/06 16:35:04;;;;;;;878.73;817.87;;;;;;;;;;16882517;28;20174;-86
2022/09/06 16:43:26;;;;;;;864.00;804.57;;;;;;;;;;16882670;28;20208;-88
2022/09/06 16:51:47;;;;;;;779.13;725.93;;;;;;;;;;16887420;29;20197;-88
2022/09/06 17:00:08;;;;;;;825.87;769.07;;;;;;;;;;16890012;28;20237;-88
2022/09/06 17:08:29;;;;;;;826.87;769.03;;;;;;;;;;16888194;29;20208;-88
2022/09/06 17:17:05;;;;;;;839.83;780.13;;;;;;;;;;16888753;28;20189;-88
2022/09/06 17:25:25;;;;;;;832.60;772.10;;;;;;;;;;16888215;29;20312;-88
2022/09/06 17:33:49;;;;;;;800.37;740.77;;;;;;;;;;16887023;28;20613;-88
2022/09/06 17:42:09;;;;;;;779.40;721.70;;;;;;;;;;16886544;28;20208;-88
2022/09/06 17:50:30;;;;;;;760.23;703.93;;;;;;;;;;16884467;28;20201;-86
2022/09/06 17:58:54;;;;;;;746.60;690.87;;;;;;;;;;16884910;28;20232;-87
2022/09/06 18:07:14;;;;;;;732.43;678.63;;;;;;;;;;16884688;29;20173;-87
2022/09/06 18:15:39;;;;;;;723.63;670.60;;;;;;;;;;16886023;28;20173;-87
2022/09/06 18:23:59;;;;;;;719.60;667.53;;;;;;;;;;16885645;29;20217;-87
2022/09/06 18:32:20;;;;;;;710.20;658.63;;;;;;;;;;16885369;29;20185;-88
2022/09/06 18:40:48;;;;;;;699.27;648.10;;;;;;;;;;16884114;29;20209;-88
2022/09/06 18:49:10;;;;;;;715.13;663.23;;;;;;;;;;16883769;29;20201;-87
2022/09/06 18:57:30;;;;;;;682.27;632.57;;;;;;;;;;16887378;28;20233;-88
2022/09/06 19:05:50;;;;;;;677.77;627.17;;;;;;;;;;16895407;28;20260;-87
2022/09/06 19:14:11;;;;;;;691.80;640.63;;;;;;;;;;16894995;29;20170;-88
2022/09/06 19:22:32;;;;;;;679.73;628.53;;;;;;;;;;16893471;29;20826;-88
2022/09/06 19:30:53;;;;;;;669.30;619.23;;;;;;;;;;16893013;29;20644;-88
2022/09/06 19:39:14;;;;;;;645.60;594.60;;;;;;;;;;16892533;29;20228;-88
2022/09/06 19:47:34;;;;;;;633.50;585.70;;;;;;;;;;16892193;28;20185;-88
2022/09/06 19:55:55;;;;;;;625.37;577.77;;;;;;;;;;16890542;28;20335;-87
2022/09/06 20:04:15;;;;;;;638.87;590.83;;;;;;;;;;16891569;29;20213;-87
2022/09/06 20:12:37;;;;;;;607.17;561.03;;;;;;;;;;16890821;29;20180;-88
2022/09/06 20:21:00;;;;;;;601.50;556.77;;;;;;;;;;16889603;29;20220;-87
2022/09/06 20:29:20;;;;;;;603.27;557.73;;;;;;;;;;16891111;28;20192;-87
2022/09/06 20:37:41;;;;;;;598.70;552.80;;;;;;;;;;16889692;28;20184;-87
2022/09/06 20:46:03;;;;;;;602.20;554.43;;;;;;;;;;16889312;29;20263;-87
2022/09/06 20:54:23;;;;;;;585.57;539.97;;;;;;;;;;16888974;28;20201;-88
2022/09/06 21:02:43;;;;;;;586.97;538.50;;;;;;;;;;16889579;29;20330;-87
2022/09/06 21:11:04;;;;;;;565.07;518.67;;;;;;;;;;16889982;28;20188;-87
2022/09/06 21:19:25;;;;;;;560.93;515.13;;;;;;;;;;16887138;29;20209;-87
2022/09/06 21:27:45;;;;;;;559.47;512.70;;;;;;;;;;16888538;28;20185;-87
2022/09/06 21:36:10;;;;;;;558.20;511.27;;;;;;;;;;16885975;29;20177;-87
2022/09/06 21:44:30;;;;;;;549.70;503.17;;;;;;;;;;16887288;28;20201;-87
2022/09/06 21:52:51;;;;;;;535.67;488.77;;;;;;;;;;16887101;29;20244;-87
2022/09/06 22:01:11;;;;;;;507.53;463.27;;;;;;;;;;16886173;28;20340;-87
2022/09/06 22:09:31;;;;;;;508.90;465.23;;;;;;;;;;16885582;29;20180;-87
2022/09/06 22:17:52;;;;;;;496.70;452.87;;;;;;;;;;16884291;28;20216;-87
2022/09/06 22:26:12;;;;;;;496.27;453.30;;;;;;;;;;16885925;28;20217;-87
2022/09/06 22:34:32;;;;;;;482.07;439.80;;;;;;;;;;16891180;28;20177;-87
2022/09/06 22:42:53;;;;;;;471.40;428.10;;;;;;;;;;16896506;29;20201;-87
2022/09/06 22:51:13;;;;;;;462.40;417.80;;;;;;;;;;16894175;29;20197;-87
2022/09/06 22:59:34;;;;;;;450.60;405.93;;;;;;;;;;16895962;29;20232;-87
2022/09/06 23:07:56;;;;;;;463.27;417.30;;;;;;;;;;16893386;29;20185;-87
2022/09/06 23:16:17;;;;;;;435.47;391.23;;;;;;;;;;16894841;28;20173;-87
2022/09/06 23:24:38;;;;;;;436.40;392.57;;;;;;;;;;16893544;28;20240;-87
2022/09/06 23:32:58;;;;;;;437.60;394.00;;;;;;;;;;16894005;28;20187;-87
2022/09/06 23:41:19;;;;;;;408.70;367.03;;;;;;;;;;16892056;28;20225;-87
2022/09/06 23:49:39;;;;;;;422.10;380.27;;;;;;;;;;16892175;29;20204;-87
2022/09/06 23:57:59;;;;;;;399.97;359.03;;;;;;;;;;16892291;28;20255;-87
